sensor_id;sensor_type;location;lat;lon;timestamp;pressure;altitude;pressure_sealevel;temperature;humidity
12785;BME280;6456;42.680;23.260;2024-03-06T00:02:22;94393.44;;;6.89;100.00
12785;BME280;6456;42.680;23.260;2024-03-06T00:04:52;94344.63;;;6.49;100.00
12785;BME280;6456;42.680;23.260;2024-03-06T00:07:23;94402.53;;;6.93;100.00
12785;BME280;6456;42.680;23.260;2024-03-06T00:09:59;94410.78;;;6.96;100.00
12785;BME280;6456;42.680;23.260;2024-03-06T00:12:33;94434.81;;;7.13;100.00
12785;BME280;6456;42.680;23.260;2024-03-06T00:15:00;94425.91;;;7.01;100.00
12785;BME280;6456;42.680;23.260;2024-03-06T00:17:28;94379.09;;;6.72;100.00
12785;BME280;6456;42.680;23.260;2024-03-06T00:20:01;94442.59;;;7.06;100.00
12785;BME280;6456;42.680;23.260;2024-03-06T00:22:30;94349.22;;;6.46;100.00
12785;BME280;6456;42.680;23.260;2024-03-06T00:24:59;94376.59;;;6.57;100.00
12785;BME280;6456;42.680;23.260;2024-03-06T00:27:26;94420.19;;;6.84;100.00
12785;BME280;6456;42.680;23.260;2024-03-06T00:29:53;94436.94;;;6.96;100.00
12785;BME280;6456;42.680;23.260;2024-03-06T00:32:20;94439.94;;;6.93;100.00
12785;BME280;6456;42.680;23.260;2024-03-06T00:34:49;94415.16;;;6.83;100.00
12785;BME280;6456;42.680;23.260;2024-03-06T00:37:16;94427.44;;;6.89;100.00
12785;BME280;6456;42.680;23.260;2024-03-06T00:39:45;94439.94;;;6.93;100.00
12785;BME280;6456;42.680;23.260;2024-03-06T00:42:14;94405.22;;;6.65;100.00
12785;BME280;6456;42.680;23.260;2024-03-06T00:44:41;94424.78;;;6.76;100.00
12785;BME280;6456;42.680;23.260;2024-03-06T00:47:08;94417.31;;;6.73;100.00
12785;BME280;6456;42.680;23.260;2024-03-06T00:49:36;94413.66;;;6.67;100.00
12785;BME280;6456;42.680;23.260;2024-03-06T00:52:04;94441.69;;;6.80;100.00
12785;BME280;6456;42.680;23.260;2024-03-06T00:54:31;94436.22;;;6.75;100.00
12785;BME280;6456;42.680;23.260;2024-03-06T00:56:58;94437.03;;;6.75;100.00
12785;BME280;6456;42.680;23.260;2024-03-06T00:59:27;94441.44;;;6.68;100.00
12785;BME280;6456;42.680;23.260;2024-03-06T01:01:54;94435.38;;;6.61;100.00
12785;BME280;6456;42.680;23.260;2024-03-06T01:04:21;94378.06;;;6.25;100.00
12785;BME280;6456;42.680;23.260;2024-03-06T01:06:48;94439.41;;;6.64;100.00
12785;BME280;6456;42.680;23.260;2024-03-06T01:09:17;94451.84;;;6.62;100.00
12785;BME280;6456;42.680;23.260;2024-03-06T01:11:44;94434.94;;;6.58;100.00
12785;BME280;6456;42.680;23.260;2024-03-06T01:14:12;94441.59;;;6.60;100.00
12785;BME280;6456;42.680;23.260;2024-03-06T01:16:41;94445.38;;;6.58;100.00
12785;BME280;6456;42.680;23.260;2024-03-06T01:19:08;94414.31;;;6.41;100.00
12785;BME280;6456;42.680;23.260;2024-03-06T01:21:34;94434.94;;;6.58;100.00
12785;BME280;6456;42.680;23.260;2024-03-06T01:24:02;94388.72;;;6.30;100.00
12785;BME280;6456;42.680;23.260;2024-03-06T01:26:29;94431.13;;;6.60;100.00
12785;BME280;6456;42.680;23.260;2024-03-06T01:28:56;94420.22;;;6.57;100.00
12785;BME280;6456;42.680;23.260;2024-03-06T01:31:22;94375.34;;;6.12;100.00
12785;BME280;6456;42.680;23.260;2024-03-06T01:33:51;94430.09;;;6.55;100.00
12785;BME280;6456;42.680;23.260;2024-03-06T01:36:18;94367.94;;;6.16;100.00
12785;BME280;6456;42.680;23.260;2024-03-06T01:38:45;94428.47;;;6.54;100.00
12785;BME280;6456;42.680;23.260;2024-03-06T01:41:12;94429.47;;;6.53;100.00
12785;BME280;6456;42.680;23.260;2024-03-06T01:43:39;94401.75;;;6.24;100.00
12785;BME280;6456;42.680;23.260;2024-03-06T01:46:06;94426.63;;;6.47;100.00
12785;BME280;6456;42.680;23.260;2024-03-06T01:48:33;94388.06;;;6.22;100.00
12785;BME280;6456;42.680;23.260;2024-03-06T01:51:03;94427.38;;;6.41;100.00
12785;BME280;6456;42.680;23.260;2024-03-06T01:53:32;94436.03;;;6.42;100.00
12785;BME280;6456;42.680;23.260;2024-03-06T01:56:00;94422.50;;;6.32;100.00
12785;BME280;6456;42.680;23.260;2024-03-06T01:58:29;94436.00;;;6.35;100.00
12785;BME280;6456;42.680;23.260;2024-03-06T02:00:57;94438.38;;;6.30;100.00
12785;BME280;6456;42.680;23.260;2024-03-06T02:03:25;94435.16;;;6.28;100.00
12785;BME280;6456;42.680;23.260;2024-03-06T02:05:52;94402.38;;;5.98;100.00
12785;BME280;6456;42.680;23.260;2024-03-06T02:08:21;94395.06;;;5.87;100.00
12785;BME280;6456;42.680;23.260;2024-03-06T02:10:48;94438.25;;;6.11;100.00
12785;BME280;6456;42.680;23.260;2024-03-06T02:13:15;94445.88;;;6.12;100.00
12785;BME280;6456;42.680;23.260;2024-03-06T02:15:47;94449.22;;;6.06;100.00
12785;BME280;6456;42.680;23.260;2024-03-06T02:18:14;94403.13;;;5.71;100.00
12785;BME280;6456;42.680;23.260;2024-03-06T02:20:43;94404.94;;;5.70;100.00
12785;BME280;6456;42.680;23.260;2024-03-06T02:23:11;94449.97;;;5.94;100.00
12785;BME280;6456;42.680;23.260;2024-03-06T02:25:38;94467.09;;;6.03;100.00
12785;BME280;6456;42.680;23.260;2024-03-06T02:28:05;94405.25;;;5.61;100.00
12785;BME280;6456;42.680;23.260;2024-03-06T02:30:32;94461.06;;;6.02;100.00
12785;BME280;6456;42.680;23.260;2024-03-06T02:33:02;94416.72;;;5.66;100.00
12785;BME280;6456;42.680;23.260;2024-03-06T02:35:29;94430.03;;;5.71;100.00
12785;BME280;6456;42.680;23.260;2024-03-06T02:37:58;94414.69;;;5.62;100.00
12785;BME280;6456;42.680;23.260;2024-03-06T02:40:25;94471.50;;;6.02;100.00
12785;BME280;6456;42.680;23.260;2024-03-06T02:42:52;94393.69;;;5.49;100.00
12785;BME280;6456;42.680;23.260;2024-03-06T02:45:20;94491.59;;;6.02;100.00
12785;BME280;6456;42.680;23.260;2024-03-06T02:47:47;94473.13;;;6.03;100.00
12785;BME280;6456;42.680;23.260;2024-03-06T02:50:14;94468.69;;;6.04;100.00
12785;BME280;6456;42.680;23.260;2024-03-06T02:52:41;94405.50;;;5.66;100.00
12785;BME280;6456;42.680;23.260;2024-03-06T02:55:10;94467.72;;;6.05;100.00
12785;BME280;6456;42.680;23.260;2024-03-06T02:57:37;94470.31;;;6.05;100.00
12785;BME280;6456;42.680;23.260;2024-03-06T03:00:05;94477.34;;;6.04;100.00
12785;BME280;6456;42.680;23.260;2024-03-06T03:02:38;94477.09;;;5.99;100.00
12785;BME280;6456;42.680;23.260;2024-03-06T03:05:06;94470.59;;;5.89;100.00
12785;BME280;6456;42.680;23.260;2024-03-06T03:07:33;94479.66;;;5.93;100.00
12785;BME280;6456;42.680;23.260;2024-03-06T03:10:00;94480.84;;;5.90;100.00
12785;BME280;6456;42.680;23.260;2024-03-06T03:12:28;94483.84;;;5.87;100.00
12785;BME280;6456;42.680;23.260;2024-03-06T03:14:55;94481.75;;;5.82;100.00
12785;BME280;6456;42.680;23.260;2024-03-06T03:17:22;94415.44;;;5.35;100.00
12785;BME280;6456;42.680;23.260;2024-03-06T03:19:49;94478.69;;;5.79;100.00
12785;BME280;6456;42.680;23.260;2024-03-06T03:22:16;94464.88;;;5.64;100.00
12785;BME280;6456;42.680;23.260;2024-03-06T03:24:43;94485.53;;;5.80;100.00
12785;BME280;6456;42.680;23.260;2024-03-06T03:27:10;94489.13;;;5.79;100.00
12785;BME280;6456;42.680;23.260;2024-03-06T03:29:39;94491.75;;;5.79;100.00
12785;BME280;6456;42.680;23.260;2024-03-06T03:32:06;94486.53;;;5.79;100.00
12785;BME280;6456;42.680;23.260;2024-03-06T03:34:34;94443.66;;;5.46;100.00
12785;BME280;6456;42.680;23.260;2024-03-06T03:37:01;94460.34;;;5.51;100.00
12785;BME280;6456;42.680;23.260;2024-03-06T03:39:28;94493.75;;;5.77;100.00
12785;BME280;6456;42.680;23.260;2024-03-06T03:41:55;94485.28;;;5.75;100.00
12785;BME280;6456;42.680;23.260;2024-03-06T03:44:22;94486.91;;;5.76;100.00
12785;BME280;6456;42.680;23.260;2024-03-06T03:46:50;94426.59;;;5.29;100.00
12785;BME280;6456;42.680;23.260;2024-03-06T03:49:26;94456.81;;;5.59;100.00
12785;BME280;6456;42.680;23.260;2024-03-06T03:51:53;94493.56;;;5.78;100.00
12785;BME280;6456;42.680;23.260;2024-03-06T03:54:20;94447.25;;;5.45;100.00
12785;BME280;6456;42.680;23.260;2024-03-06T03:56:48;94494.56;;;5.77;100.00
12785;BME280;6456;42.680;23.260;2024-03-06T03:59:15;94447.97;;;5.39;100.00
12785;BME280;6456;42.680;23.260;2024-03-06T04:01:44;94499.06;;;5.69;100.00
12785;BME280;6456;42.680;23.260;2024-03-06T04:04:13;94477.00;;;5.50;100.00
12785;BME280;6456;42.680;23.260;2024-03-06T04:06:40;94480.19;;;5.46;100.00
12785;BME280;6456;42.680;23.260;2024-03-06T04:09:08;94502.19;;;5.58;100.00
12785;BME280;6456;42.680;23.260;2024-03-06T04:11:36;94515.59;;;5.55;100.00
12785;BME280;6456;42.680;23.260;2024-03-06T04:14:03;94504.91;;;5.50;100.00
12785;BME280;6456;42.680;23.260;2024-03-06T04:16:31;94493.06;;;5.33;100.00
12785;BME280;6456;42.680;23.260;2024-03-06T04:18:58;94508.13;;;5.31;100.00
12785;BME280;6456;42.680;23.260;2024-03-06T04:21:27;94516.63;;;5.39;100.00
12785;BME280;6456;42.680;23.260;2024-03-06T04:23:56;94516.81;;;5.38;100.00
12785;BME280;6456;42.680;23.260;2024-03-06T04:26:23;94503.63;;;5.25;100.00
12785;BME280;6456;42.680;23.260;2024-03-06T04:28:50;94529.59;;;5.33;100.00
12785;BME280;6456;42.680;23.260;2024-03-06T04:31:17;94538.41;;;5.32;100.00
12785;BME280;6456;42.680;23.260;2024-03-06T04:33:44;94505.88;;;5.13;100.00
12785;BME280;6456;42.680;23.260;2024-03-06T04:36:11;94468.69;;;4.90;100.00
12785;BME280;6456;42.680;23.260;2024-03-06T04:38:40;94529.97;;;5.30;100.00
12785;BME280;6456;42.680;23.260;2024-03-06T04:41:07;94527.63;;;5.35;100.00
12785;BME280;6456;42.680;23.260;2024-03-06T04:43:34;94516.19;;;5.21;100.00
12785;BME280;6456;42.680;23.260;2024-03-06T04:46:01;94534.81;;;5.33;100.00
12785;BME280;6456;42.680;23.260;2024-03-06T04:48:28;94537.78;;;5.30;100.00
12785;BME280;6456;42.680;23.260;2024-03-06T04:50:55;94545.00;;;5.28;100.00
12785;BME280;6456;42.680;23.260;2024-03-06T04:53:23;94552.63;;;5.29;100.00
12785;BME280;6456;42.680;23.260;2024-03-06T04:55:51;94532.66;;;5.22;100.00
12785;BME280;6456;42.680;23.260;2024-03-06T04:58:18;94500.97;;;5.03;100.00
12785;BME280;6456;42.680;23.260;2024-03-06T05:00:45;94522.44;;;5.20;100.00
12785;BME280;6456;42.680;23.260;2024-03-06T05:03:14;94556.13;;;5.36;100.00
12785;BME280;6456;42.680;23.260;2024-03-06T05:05:41;94548.56;;;5.41;100.00
12785;BME280;6456;42.680;23.260;2024-03-06T05:08:08;94528.97;;;5.31;100.00
12785;BME280;6456;42.680;23.260;2024-03-06T05:10:36;94535.44;;;5.35;100.00
12785;BME280;6456;42.680;23.260;2024-03-06T05:13:04;94553.31;;;5.52;100.00
12785;BME280;6456;42.680;23.260;2024-03-06T05:15:31;94500.75;;;5.19;100.00
12785;BME280;6456;42.680;23.260;2024-03-06T05:17:59;94542.81;;;5.46;100.00
12785;BME280;6456;42.680;23.260;2024-03-06T05:20:26;94558.59;;;5.59;100.00
12785;BME280;6456;42.680;23.260;2024-03-06T05:22:53;94458.59;;;5.01;100.00
12785;BME280;6456;42.680;23.260;2024-03-06T05:25:20;94479.88;;;5.19;100.00
12785;BME280;6456;42.680;23.260;2024-03-06T05:27:47;94535.94;;;5.59;100.00
12785;BME280;6456;42.680;23.260;2024-03-06T05:30:16;94551.94;;;5.71;100.00
12785;BME280;6456;42.680;23.260;2024-03-06T05:32:43;94551.53;;;5.74;100.00
12785;BME280;6456;42.680;23.260;2024-03-06T05:35:09;94564.16;;;5.85;100.00
12785;BME280;6456;42.680;23.260;2024-03-06T05:37:37;94543.97;;;5.79;100.00
12785;BME280;6456;42.680;23.260;2024-03-06T05:40:05;94566.91;;;5.98;100.00
12785;BME280;6456;42.680;23.260;2024-03-06T05:42:34;94547.19;;;5.96;100.00
12785;BME280;6456;42.680;23.260;2024-03-06T05:45:01;94563.19;;;6.07;100.00
12785;BME280;6456;42.680;23.260;2024-03-06T05:47:32;94570.13;;;6.21;100.00
12785;BME280;6456;42.680;23.260;2024-03-06T05:49:59;94575.59;;;6.26;100.00
12785;BME280;6456;42.680;23.260;2024-03-06T05:52:29;94577.47;;;6.32;100.00
12785;BME280;6456;42.680;23.260;2024-03-06T05:54:56;94536.16;;;6.21;100.00
12785;BME280;6456;42.680;23.260;2024-03-06T05:57:23;94580.84;;;6.47;100.00
12785;BME280;6456;42.680;23.260;2024-03-06T05:59:50;94579.28;;;6.53;100.00
12785;BME280;6456;42.680;23.260;2024-03-06T06:02:18;94572.00;;;6.49;100.00
12785;BME280;6456;42.680;23.260;2024-03-06T06:04:46;94564.28;;;6.40;100.00
12785;BME280;6456;42.680;23.260;2024-03-06T06:07:13;94579.22;;;6.46;100.00
12785;BME280;6456;42.680;23.260;2024-03-06T06:09:41;94582.06;;;6.52;100.00
12785;BME280;6456;42.680;23.260;2024-03-06T06:12:08;94592.03;;;6.63;100.00
12785;BME280;6456;42.680;23.260;2024-03-06T06:14:35;94594.50;;;6.71;100.00
12785;BME280;6456;42.680;23.260;2024-03-06T06:17:02;94577.31;;;6.62;100.00
12785;BME280;6456;42.680;23.260;2024-03-06T06:19:29;94602.22;;;6.79;100.00
12785;BME280;6456;42.680;23.260;2024-03-06T06:21:58;94593.59;;;6.85;100.00
12785;BME280;6456;42.680;23.260;2024-03-06T06:24:25;94554.44;;;6.64;100.00
12785;BME280;6456;42.680;23.260;2024-03-06T06:26:52;94586.00;;;6.90;100.00
12785;BME280;6456;42.680;23.260;2024-03-06T06:29:19;94582.41;;;6.97;100.00
12785;BME280;6456;42.680;23.260;2024-03-06T06:31:46;94573.41;;;7.06;100.00
12785;BME280;6456;42.680;23.260;2024-03-06T06:34:13;94515.50;;;6.75;100.00
12785;BME280;6456;42.680;23.260;2024-03-06T06:36:45;94580.06;;;7.09;100.00
12785;BME280;6456;42.680;23.260;2024-03-06T06:39:13;94579.31;;;7.15;100.00
12785;BME280;6456;42.680;23.260;2024-03-06T06:41:42;94579.34;;;7.22;100.00
12785;BME280;6456;42.680;23.260;2024-03-06T06:44:09;94578.59;;;7.28;100.00
12785;BME280;6456;42.680;23.260;2024-03-06T06:46:36;94528.91;;;7.00;100.00
12785;BME280;6456;42.680;23.260;2024-03-06T06:49:03;94566.22;;;7.15;100.00
12785;BME280;6456;42.680;23.260;2024-03-06T06:51:30;94582.16;;;7.20;100.00
12785;BME280;6456;42.680;23.260;2024-03-06T06:53:57;94570.84;;;7.13;100.00
12785;BME280;6456;42.680;23.260;2024-03-06T06:56:25;94575.75;;;7.29;100.00
12785;BME280;6456;42.680;23.260;2024-03-06T06:58:52;94563.19;;;7.11;100.00
12785;BME280;6456;42.680;23.260;2024-03-06T07:01:19;94588.31;;;7.40;100.00
12785;BME280;6456;42.680;23.260;2024-03-06T07:03:47;94576.63;;;7.36;100.00
12785;BME280;6456;42.680;23.260;2024-03-06T07:06:14;94592.38;;;7.49;100.00
12785;BME280;6456;42.680;23.260;2024-03-06T07:08:40;94585.53;;;7.48;100.00
12785;BME280;6456;42.680;23.260;2024-03-06T07:11:07;94597.69;;;7.62;100.00
12785;BME280;6456;42.680;23.260;2024-03-06T07:13:37;94558.75;;;7.46;100.00
12785;BME280;6456;42.680;23.260;2024-03-06T07:16:05;94573.06;;;7.57;100.00
12785;BME280;6456;42.680;23.260;2024-03-06T07:18:32;94595.97;;;7.83;100.00
12785;BME280;6456;42.680;23.260;2024-03-06T07:21:00;94580.03;;;7.78;100.00
12785;BME280;6456;42.680;23.260;2024-03-06T07:23:27;94579.66;;;7.87;100.00
12785;BME280;6456;42.680;23.260;2024-03-06T07:25:54;94595.63;;;8.05;100.00
12785;BME280;6456;42.680;23.260;2024-03-06T07:28:23;94555.88;;;7.89;100.00
12785;BME280;6456;42.680;23.260;2024-03-06T07:30:52;94567.78;;;8.04;100.00
12785;BME280;6456;42.680;23.260;2024-03-06T07:33:19;94553.06;;;7.84;100.00
12785;BME280;6456;42.680;23.260;2024-03-06T07:35:46;94533.69;;;7.85;100.00
12785;BME280;6456;42.680;23.260;2024-03-06T07:38:13;94549.06;;;8.01;100.00
12785;BME280;6456;42.680;23.260;2024-03-06T07:40:40;94586.06;;;8.38;100.00
12785;BME280;6456;42.680;23.260;2024-03-06T07:43:07;94590.91;;;8.48;100.00
12785;BME280;6456;42.680;23.260;2024-03-06T07:45:34;94567.72;;;8.45;100.00
12785;BME280;6456;42.680;23.260;2024-03-06T07:48:03;94570.16;;;8.47;100.00
12785;BME280;6456;42.680;23.260;2024-03-06T07:50:30;94580.63;;;8.60;100.00
12785;BME280;6456;42.680;23.260;2024-03-06T07:52:57;94472.06;;;8.02;100.00
12785;BME280;6456;42.680;23.260;2024-03-06T07:55:25;94595.97;;;8.82;100.00
12785;BME280;6456;42.680;23.260;2024-03-06T07:57:52;94582.03;;;8.82;100.00
12785;BME280;6456;42.680;23.260;2024-03-06T08:00:19;94582.84;;;8.82;100.00
12785;BME280;6456;42.680;23.260;2024-03-06T08:02:47;94589.72;;;8.83;100.00
12785;BME280;6456;42.680;23.260;2024-03-06T08:05:17;94554.41;;;8.53;100.00
12785;BME280;6456;42.680;23.260;2024-03-06T08:07:45;94595.97;;;8.82;100.00
12785;BME280;6456;42.680;23.260;2024-03-06T08:10:12;94591.13;;;8.92;100.00
12785;BME280;6456;42.680;23.260;2024-03-06T08:12:40;94541.09;;;8.68;100.00
12785;BME280;6456;42.680;23.260;2024-03-06T08:15:10;94545.53;;;8.74;100.00
12785;BME280;6456;42.680;23.260;2024-03-06T08:17:38;94604.63;;;9.16;100.00
12785;BME280;6456;42.680;23.260;2024-03-06T08:20:07;94601.38;;;9.20;100.00
12785;BME280;6456;42.680;23.260;2024-03-06T08:22:38;94598.16;;;9.25;100.00
12785;BME280;6456;42.680;23.260;2024-03-06T08:25:11;94582.63;;;9.17;100.00
12785;BME280;6456;42.680;23.260;2024-03-06T08:27:39;94553.56;;;8.98;100.00
12785;BME280;6456;42.680;23.260;2024-03-06T08:30:08;94537.03;;;8.91;100.00
12785;BME280;6456;42.680;23.260;2024-03-06T08:32:36;94557.78;;;9.13;100.00
12785;BME280;6456;42.680;23.260;2024-03-06T08:35:04;94556.97;;;9.12;100.00
12785;BME280;6456;42.680;23.260;2024-03-06T08:37:32;94594.25;;;9.47;100.00
12785;BME280;6456;42.680;23.260;2024-03-06T08:40:01;94593.22;;;9.54;100.00
12785;BME280;6456;42.680;23.260;2024-03-06T08:42:28;94552.69;;;9.31;100.00
12785;BME280;6456;42.680;23.260;2024-03-06T08:44:56;94586.94;;;9.62;100.00
12785;BME280;6456;42.680;23.260;2024-03-06T08:47:23;94492.78;;;9.08;100.00
12785;BME280;6456;42.680;23.260;2024-03-06T08:49:50;94594.97;;;9.80;100.00
12785;BME280;6456;42.680;23.260;2024-03-06T08:52:17;94561.06;;;9.65;100.00
12785;BME280;6456;42.680;23.260;2024-03-06T08:54:45;94578.59;;;9.78;100.00
12785;BME280;6456;42.680;23.260;2024-03-06T08:57:13;94590.13;;;9.84;100.00
12785;BME280;6456;42.680;23.260;2024-03-06T08:59:41;94537.25;;;9.60;100.00
12785;BME280;6456;42.680;23.260;2024-03-06T09:02:12;94543.94;;;9.56;100.00
12785;BME280;6456;42.680;23.260;2024-03-06T09:04:40;94573.00;;;9.68;99.85
12785;BME280;6456;42.680;23.260;2024-03-06T09:07:08;94582.59;;;9.87;99.95
12785;BME280;6456;42.680;23.260;2024-03-06T09:09:35;94559.38;;;9.84;99.27
12785;BME280;6456;42.680;23.260;2024-03-06T09:12:02;94601.88;;;10.25;98.96
12785;BME280;6456;42.680;23.260;2024-03-06T09:14:33;94605.84;;;10.35;99.06
12785;BME280;6456;42.680;23.260;2024-03-06T09:17:00;94596.72;;;10.44;99.20
12785;BME280;6456;42.680;23.260;2024-03-06T09:19:27;94543.03;;;10.20;97.83
12785;BME280;6456;42.680;23.260;2024-03-06T09:21:55;94520.03;;;10.09;95.57
12785;BME280;6456;42.680;23.260;2024-03-06T09:24:23;94574.97;;;10.55;94.25
12785;BME280;6456;42.680;23.260;2024-03-06T09:26:51;94523.16;;;10.30;93.83
12785;BME280;6456;42.680;23.260;2024-03-06T09:29:19;94575.03;;;10.79;93.44
12785;BME280;6456;42.680;23.260;2024-03-06T09:31:47;94567.06;;;10.86;93.06
12785;BME280;6456;42.680;23.260;2024-03-06T09:34:15;94524.88;;;10.68;90.91
12785;BME280;6456;42.680;23.260;2024-03-06T09:36:45;94581.72;;;11.00;88.68
12785;BME280;6456;42.680;23.260;2024-03-06T09:39:13;94577.56;;;11.11;88.43
12785;BME280;6456;42.680;23.260;2024-03-06T09:41:42;94576.06;;;11.21;88.08
12785;BME280;6456;42.680;23.260;2024-03-06T09:44:10;94593.50;;;11.40;87.80
12785;BME280;6456;42.680;23.260;2024-03-06T09:46:38;94574.78;;;11.48;87.58
12785;BME280;6456;42.680;23.260;2024-03-06T09:49:07;94486.50;;;11.03;87.29
12785;BME280;6456;42.680;23.260;2024-03-06T09:51:36;94519.88;;;11.27;84.94
12785;BME280;6456;42.680;23.260;2024-03-06T09:54:07;94467.78;;;11.11;84.13
12785;BME280;6456;42.680;23.260;2024-03-06T09:56:35;94524.13;;;11.46;84.89
12785;BME280;6456;42.680;23.260;2024-03-06T09:59:02;94588.28;;;11.95;83.57
12785;BME280;6456;42.680;23.260;2024-03-06T10:01:29;94507.13;;;11.42;82.79
12785;BME280;6456;42.680;23.260;2024-03-06T10:03:58;94585.31;;;12.03;82.42
12785;BME280;6456;42.680;23.260;2024-03-06T10:06:26;94526.63;;;11.78;82.70
12785;BME280;6456;42.680;23.260;2024-03-06T10:09:03;94566.41;;;12.06;80.55
12785;BME280;6456;42.680;23.260;2024-03-06T10:11:38;94562.66;;;12.13;78.22
12785;BME280;6456;42.680;23.260;2024-03-06T10:14:06;94526.16;;;11.99;77.59
12785;BME280;6456;42.680;23.260;2024-03-06T10:16:33;94511.06;;;11.88;76.84
12785;BME280;6456;42.680;23.260;2024-03-06T10:19:15;94569.75;;;12.31;75.75
12785;BME280;6456;42.680;23.260;2024-03-06T10:21:46;94567.69;;;12.33;73.50
12785;BME280;6456;42.680;23.260;2024-03-06T10:24:18;94520.72;;;12.12;73.43
12785;BME280;6456;42.680;23.260;2024-03-06T10:26:45;94467.03;;;11.77;72.77
12785;BME280;6456;42.680;23.260;2024-03-06T10:29:15;94439.06;;;11.76;72.35
12785;BME280;6456;42.680;23.260;2024-03-06T10:31:47;94554.31;;;12.58;72.72
12785;BME280;6456;42.680;23.260;2024-03-06T10:34:14;94497.25;;;12.34;71.76
12785;BME280;6456;42.680;23.260;2024-03-06T10:36:42;94500.50;;;12.47;71.43
12785;BME280;6456;42.680;23.260;2024-03-06T10:39:11;94485.56;;;12.41;70.12
12785;BME280;6456;42.680;23.260;2024-03-06T10:41:40;94501.19;;;12.54;69.74
12785;BME280;6456;42.680;23.260;2024-03-06T10:44:11;94445.25;;;12.22;69.97
12785;BME280;6456;42.680;23.260;2024-03-06T10:46:43;94493.66;;;12.69;70.34
12785;BME280;6456;42.680;23.260;2024-03-06T10:49:11;94515.56;;;12.93;70.06
12785;BME280;6456;42.680;23.260;2024-03-06T10:51:40;94470.00;;;12.74;70.08
12785;BME280;6456;42.680;23.260;2024-03-06T10:54:10;94476.88;;;12.75;70.64
12785;BME280;6456;42.680;23.260;2024-03-06T10:56:40;94513.16;;;13.03;69.59
12785;BME280;6456;42.680;23.260;2024-03-06T10:59:10;94505.75;;;13.12;69.15
12785;BME280;6456;42.680;23.260;2024-03-06T11:01:39;94497.22;;;13.21;68.77
12785;BME280;6456;42.680;23.260;2024-03-06T11:04:09;94448.09;;;12.97;68.05
12785;BME280;6456;42.680;23.260;2024-03-06T11:06:38;94398.47;;;12.76;67.31
12785;BME280;6456;42.680;23.260;2024-03-06T11:09:05;94411.66;;;12.99;68.21
12785;BME280;6456;42.680;23.260;2024-03-06T11:11:49;94452.63;;;13.36;68.79
12785;BME280;6456;42.680;23.260;2024-03-06T11:14:17;94442.72;;;13.43;67.35
12785;BME280;6456;42.680;23.260;2024-03-06T11:17:01;94468.31;;;13.66;67.32
12785;BME280;6456;42.680;23.260;2024-03-06T11:19:33;94443.41;;;13.50;67.10
12785;BME280;6456;42.680;23.260;2024-03-06T11:23:02;94459.97;;;13.58;65.27
12785;BME280;6456;42.680;23.260;2024-03-06T11:26:04;94469.78;;;13.74;69.74
12785;BME280;6456;42.680;23.260;2024-03-06T11:28:34;94433.97;;;13.55;65.76
12785;BME280;6456;42.680;23.260;2024-03-06T11:31:04;94463.50;;;13.91;64.52
12785;BME280;6456;42.680;23.260;2024-03-06T11:33:35;94460.22;;;14.01;64.54
12785;BME280;6456;42.680;23.260;2024-03-06T11:36:20;94433.13;;;13.94;65.22
12785;BME280;6456;42.680;23.260;2024-03-06T11:38:51;94457.84;;;14.16;61.31
12785;BME280;6456;42.680;23.260;2024-03-06T11:41:20;94448.50;;;14.25;59.57
12785;BME280;6456;42.680;23.260;2024-03-06T11:43:50;94428.84;;;14.21;59.23
12785;BME280;6456;42.680;23.260;2024-03-06T11:46:18;94442.78;;;14.45;57.65
12785;BME280;6456;42.680;23.260;2024-03-06T11:48:52;94434.38;;;14.48;56.70
12785;BME280;6456;42.680;23.260;2024-03-06T11:51:20;94423.69;;;14.43;55.86
12785;BME280;6456;42.680;23.260;2024-03-06T11:53:49;94404.41;;;14.31;57.11
12785;BME280;6456;42.680;23.260;2024-03-06T11:56:17;94426.59;;;14.58;57.95
12785;BME280;6456;42.680;23.260;2024-03-06T11:58:46;94377.84;;;14.26;55.97
12785;BME280;6456;42.680;23.260;2024-03-06T12:01:15;94421.56;;;14.78;55.59
12785;BME280;6456;42.680;23.260;2024-03-06T12:03:42;94423.88;;;14.91;55.08
12785;BME280;6456;42.680;23.260;2024-03-06T12:06:11;94414.03;;;15.08;54.70
12785;BME280;6456;42.680;23.260;2024-03-06T12:08:39;94371.84;;;15.02;54.74
12785;BME280;6456;42.680;23.260;2024-03-06T12:11:08;94365.84;;;15.11;54.62
12785;BME280;6456;42.680;23.260;2024-03-06T12:13:35;94403.59;;;15.40;53.37
12785;BME280;6456;42.680;23.260;2024-03-06T12:16:06;94399.09;;;15.40;53.21
12785;BME280;6456;42.680;23.260;2024-03-06T12:18:35;94388.59;;;15.46;53.15
12785;BME280;6456;42.680;23.260;2024-03-06T12:21:02;94406.16;;;15.78;52.68
12785;BME280;6456;42.680;23.260;2024-03-06T12:23:29;94402.72;;;16.04;53.06
12785;BME280;6456;42.680;23.260;2024-03-06T12:26:07;94355.97;;;15.98;52.52
12785;BME280;6456;42.680;23.260;2024-03-06T12:28:39;94398.50;;;16.35;50.41
12785;BME280;6456;42.680;23.260;2024-03-06T12:31:06;94393.19;;;16.35;50.74
12785;BME280;6456;42.680;23.260;2024-03-06T12:33:35;94329.19;;;16.00;46.81
12785;BME280;6456;42.680;23.260;2024-03-06T12:36:08;94372.72;;;16.31;45.57
12785;BME280;6456;42.680;23.260;2024-03-06T12:38:39;94346.53;;;16.13;45.94
12785;BME280;6456;42.680;23.260;2024-03-06T12:41:12;94313.22;;;15.95;45.36
12785;BME280;6456;42.680;23.260;2024-03-06T12:43:44;94346.31;;;16.19;45.24
12785;BME280;6456;42.680;23.260;2024-03-06T12:46:12;94397.28;;;16.48;44.29
12785;BME280;6456;42.680;23.260;2024-03-06T12:48:40;94383.78;;;15.96;55.02
12785;BME280;6456;42.680;23.260;2024-03-06T12:51:08;94383.84;;;15.48;57.58
12785;BME280;6456;42.680;23.260;2024-03-06T12:53:34;94390.03;;;15.36;58.71
12785;BME280;6456;42.680;23.260;2024-03-06T12:56:01;94375.44;;;14.96;59.79
12785;BME280;6456;42.680;23.260;2024-03-06T12:58:31;94320.00;;;14.51;61.54
12785;BME280;6456;42.680;23.260;2024-03-06T13:01:03;94402.88;;;14.85;62.10
12785;BME280;6456;42.680;23.260;2024-03-06T13:03:32;94396.16;;;14.60;63.63
12785;BME280;6456;42.680;23.260;2024-03-06T13:06:07;94349.75;;;14.08;62.98
12785;BME280;6456;42.680;23.260;2024-03-06T13:08:36;94403.38;;;14.32;63.26